Anaktuvuk Pass Airport Anaktuvuk Pass US
ICAO: PAKP
IATA:
Category: Medium
Scheduled Services:

Elevation: 2102 ft
TransAlt. 18000 ft.

Airport Communications:
AWOS 3:135.75
ANCHORAGE CNTR:124.6
CTAF:122.8
DEADHORSE RDO:122.15

PAKP Zoom In..

Runways:

(A) RW 02 length 4800 ft width 100 ft
---- / hdg 17

(B) RW 20 length 4800 ft width 100 ft
---- / hdg 197

Location; PAKP
Day. 25 / Time. 11.56 Zulu
* Altimeter: 29.39
* Temperature: -01° c. -30.2°f.
* Wind from: 210° Speed 10 kn.
Dewpoint: -01° c.
Visibility: 10 Statute Miles.
Clouds: Scattered 4800 ft.
Clouds: Overcast 6000 ft.

PAKP 251156Z AUTO 21010KT 10SM SCT048 OVC060 M01/M01 A2939 RMK AO2 UPE50 SLP989 P0000 60000 T10061011 10011 21006 51017 FZRANO


Wind From 210°
Speed 10 kn.

  YouTube Music Video
 
jpsmedia.com for Web Design  worldairports.se 2018   terms of use